createdAt,value
2023-03-03T00:01:07.254Z,15.64
2023-03-03T00:03:35.647Z,15.90
2023-03-03T00:06:04.824Z,15.99
2023-03-03T00:08:33.045Z,15.87
2023-03-03T00:11:03.297Z,16.02
2023-03-03T00:13:32.454Z,15.73
2023-03-03T00:16:15.174Z,16.06
2023-03-03T00:18:46.030Z,15.70
2023-03-03T00:21:25.811Z,15.84
2023-03-03T00:23:55.187Z,16.17
2023-03-03T00:26:27.522Z,16.23
2023-03-03T00:28:57.052Z,16.13
2023-03-03T00:31:31.849Z,15.98
2023-03-03T00:34:12.996Z,16.05
2023-03-03T00:36:43.143Z,15.91
2023-03-03T00:39:22.152Z,16.05
2023-03-03T00:41:50.677Z,16.38
2023-03-03T00:44:49.214Z,16.33
2023-03-03T00:47:39.146Z,16.00
2023-03-03T00:50:27.981Z,16.31
2023-03-03T00:53:02.702Z,16.49
2023-03-03T00:55:31.711Z,16.05
2023-03-03T00:57:59.830Z,16.40
2023-03-03T01:00:34.303Z,16.08
2023-03-03T01:03:06.778Z,15.99
2023-03-03T01:05:35.358Z,16.04
2023-03-03T01:08:04.189Z,16.50
2023-03-03T01:10:35.492Z,16.21
2023-03-03T01:13:04.163Z,16.46
2023-03-03T01:15:32.086Z,16.32
2023-03-03T01:18:00.178Z,16.13
2023-03-03T01:20:29.441Z,16.43
2023-03-03T01:22:57.504Z,16.26
2023-03-03T01:25:25.597Z,16.07
2023-03-03T01:27:53.478Z,16.02
2023-03-03T01:30:21.677Z,16.05
2023-03-03T01:32:49.705Z,15.98
2023-03-03T01:35:18.536Z,16.24
2023-03-03T01:37:47.883Z,16.15
2023-03-03T01:40:17.828Z,16.42
2023-03-03T01:42:45.827Z,16.35
2023-03-03T01:45:20.456Z,16.40
2023-03-03T01:47:53.851Z,16.02
2023-03-03T01:50:32.473Z,16.13
2023-03-03T01:53:05.518Z,16.39
2023-03-03T01:55:37.872Z,16.31
2023-03-03T01:58:09.687Z,15.95
2023-03-03T02:00:40.378Z,16.39
2023-03-03T02:03:08.657Z,16.00
2023-03-03T02:05:37.237Z,16.00
2023-03-03T02:08:09.978Z,16.43
2023-03-03T02:10:38.680Z,16.46
2023-03-03T02:13:06.807Z,16.49
2023-03-03T02:15:37.021Z,16.40
2023-03-03T02:18:07.564Z,16.43
2023-03-03T02:20:51.319Z,15.99
2023-03-03T02:23:25.396Z,16.50
2023-03-03T02:26:10.889Z,16.43
2023-03-03T02:28:41.538Z,16.43
2023-03-03T02:31:14.365Z,16.44
2023-03-03T02:33:45.602Z,16.45
2023-03-03T02:36:16.824Z,16.20
2023-03-03T02:38:50.767Z,16.42
2023-03-03T02:41:30.191Z,16.13
2023-03-03T02:44:02.277Z,15.99
2023-03-03T02:46:35.407Z,16.08
2023-03-03T02:49:04.473Z,16.40
2023-03-03T02:51:32.493Z,16.02
2023-03-03T02:54:00.443Z,16.05
2023-03-03T02:56:32.167Z,16.35
2023-03-03T02:59:00.579Z,16.03
2023-03-03T03:01:31.800Z,15.96
2023-03-03T03:04:00.267Z,16.32
2023-03-03T03:06:28.900Z,16.01
2023-03-03T03:08:57.684Z,16.32
2023-03-03T03:11:25.591Z,16.09
2023-03-03T03:13:55.066Z,16.25
2023-03-03T03:16:24.327Z,16.42
2023-03-03T03:18:52.259Z,16.08
2023-03-03T03:21:20.367Z,16.44
2023-03-03T03:23:48.727Z,16.36
2023-03-03T03:26:16.813Z,16.40
2023-03-03T03:28:45.476Z,16.46
2023-03-03T03:31:15.682Z,16.01
2023-03-03T03:33:43.980Z,16.21
2023-03-03T03:36:13.608Z,16.39
2023-03-03T03:38:42.809Z,16.15
2023-03-03T03:41:12.950Z,16.38
2023-03-03T03:43:41.405Z,16.09
2023-03-03T03:46:09.748Z,16.36
2023-03-03T03:48:39.119Z,16.25
2023-03-03T03:51:08.980Z,16.09
2023-03-03T03:53:37.015Z,16.08
2023-03-03T03:56:05.331Z,16.46
2023-03-03T03:58:33.602Z,15.94
2023-03-03T04:01:06.574Z,16.11
2023-03-03T04:03:38.944Z,16.29
2023-03-03T04:06:11.331Z,16.29
2023-03-03T04:08:39.560Z,15.86
2023-03-03T04:11:09.053Z,15.94
2023-03-03T04:13:37.990Z,16.04
2023-03-03T04:16:08.261Z,15.86
2023-03-03T04:18:37.129Z,15.95
2023-03-03T04:21:07.038Z,16.28
2023-03-03T04:23:35.317Z,15.78
2023-03-03T04:26:03.974Z,15.90
2023-03-03T04:28:32.062Z,15.94
2023-03-03T04:31:01.031Z,16.38
2023-03-03T04:33:31.306Z,15.99
2023-03-03T04:36:00.307Z,16.19
2023-03-03T04:38:29.739Z,16.22
2023-03-03T04:40:58.355Z,16.07
2023-03-03T04:43:29.008Z,15.94
2023-03-03T04:45:58.084Z,16.25
2023-03-03T04:48:26.255Z,16.19
2023-03-03T04:50:54.871Z,16.30
2023-03-03T04:53:23.007Z,16.18
2023-03-03T04:55:54.078Z,16.02
2023-03-03T04:58:23.239Z,16.31
2023-03-03T05:00:55.965Z,16.22
2023-03-03T05:03:26.911Z,16.24
2023-03-03T05:05:55.176Z,16.13
2023-03-03T05:08:23.493Z,16.33
2023-03-03T05:10:55.601Z,15.85
2023-03-03T05:13:23.905Z,16.01
2023-03-03T05:15:52.378Z,16.03
2023-03-03T05:18:20.987Z,15.88
2023-03-03T05:20:48.963Z,15.90
2023-03-03T05:23:17.397Z,16.02
2023-03-03T05:25:45.731Z,16.33
2023-03-03T05:28:15.239Z,16.08
2023-03-03T05:30:43.334Z,16.22
2023-03-03T05:33:15.180Z,16.29
2023-03-03T05:35:43.486Z,16.17
2023-03-03T05:38:11.963Z,15.99
2023-03-03T05:40:40.294Z,16.41
2023-03-03T05:43:08.287Z,15.98
2023-03-03T05:45:37.663Z,15.76
2023-03-03T05:48:05.857Z,16.28
2023-03-03T05:50:34.531Z,16.07
2023-03-03T05:53:02.795Z,15.90
2023-03-03T05:55:30.800Z,15.89
2023-03-03T05:57:58.880Z,15.90
2023-03-03T06:00:27.222Z,15.97
2023-03-03T06:02:56.642Z,16.07
2023-03-03T06:05:24.647Z,16.26
2023-03-03T06:07:52.673Z,16.01
2023-03-03T06:10:21.038Z,16.32
2023-03-03T06:12:55.153Z,16.34
2023-03-03T06:15:23.342Z,15.90
2023-03-03T06:17:51.382Z,15.91
2023-03-03T06:20:20.901Z,16.22
2023-03-03T06:22:48.937Z,16.30
2023-03-03T06:25:17.212Z,16.26
2023-03-03T06:27:45.514Z,16.14
2023-03-03T06:30:14.267Z,15.94
2023-03-03T06:32:42.402Z,16.28
2023-03-03T06:35:10.592Z,15.84
2023-03-03T06:37:39.955Z,15.98
2023-03-03T06:40:09.282Z,15.94
2023-03-03T06:42:37.351Z,16.07
2023-03-03T06:45:06.120Z,15.82
2023-03-03T06:47:34.030Z,15.80
2023-03-03T06:50:02.164Z,15.99
2023-03-03T06:52:30.136Z,16.31
2023-03-03T06:55:02.614Z,15.91
2023-03-03T06:57:33.807Z,15.98
2023-03-03T07:00:15.503Z,16.32
2023-03-03T07:02:43.862Z,16.44
2023-03-03T07:05:15.978Z,16.45
2023-03-03T07:07:44.046Z,16.02
2023-03-03T07:10:24.894Z,16.47
2023-03-03T07:12:53.193Z,16.03
2023-03-03T07:15:24.397Z,16.06
2023-03-03T07:17:58.281Z,16.21
2023-03-03T07:20:33.574Z,16.05
2023-03-03T07:23:01.703Z,15.97
2023-03-03T07:25:35.425Z,16.30
2023-03-03T07:28:21.681Z,15.94
2023-03-03T07:30:49.779Z,16.01
2023-03-03T07:33:26.797Z,16.36
2023-03-03T07:35:56.368Z,16.32
2023-03-03T07:38:35.706Z,15.81
2023-03-03T07:41:12.126Z,16.21
2023-03-03T07:43:44.347Z,16.32
2023-03-03T07:46:32.041Z,16.22
2023-03-03T07:49:01.492Z,15.81
2023-03-03T07:51:31.885Z,16.22
2023-03-03T07:54:15.872Z,16.25
2023-03-03T07:56:45.892Z,16.04
2023-03-03T07:59:22.200Z,16.14
2023-03-03T08:01:53.372Z,16.13
2023-03-03T08:04:25.576Z,15.93
2023-03-03T08:06:55.957Z,16.01
2023-03-03T08:09:44.114Z,15.89
2023-03-03T08:12:39.375Z,15.68
2023-03-03T08:15:19.776Z,15.84
2023-03-03T08:17:48.550Z,16.09
2023-03-03T08:20:48.172Z,15.82
2023-03-03T08:23:18.228Z,15.73
2023-03-03T08:25:46.996Z,15.64
2023-03-03T08:28:16.786Z,15.63
2023-03-03T08:30:47.166Z,15.90
2023-03-03T08:33:15.818Z,15.94
2023-03-03T08:35:44.311Z,15.68
2023-03-03T08:38:15.875Z,15.75
2023-03-03T08:40:44.444Z,16.30
2023-03-03T08:43:16.994Z,16.34
2023-03-03T08:45:47.732Z,16.34
2023-03-03T08:48:16.314Z,16.50
2023-03-03T08:50:45.547Z,16.83
2023-03-03T08:53:14.727Z,17.78
2023-03-03T08:55:43.258Z,18.17
2023-03-03T08:58:11.228Z,19.58
2023-03-03T09:00:39.466Z,19.62
2023-03-03T09:03:09.019Z,19.30
2023-03-03T09:05:39.020Z,18.70
2023-03-03T09:08:09.715Z,18.55
2023-03-03T09:10:38.237Z,18.14
2023-03-03T09:13:12.430Z,17.98
2023-03-03T09:15:40.780Z,17.80
2023-03-03T09:18:17.541Z,17.64
2023-03-03T09:20:46.969Z,17.81
2023-03-03T09:23:34.864Z,17.87
2023-03-03T09:26:31.336Z,18.44
2023-03-03T09:29:10.918Z,18.28
2023-03-03T09:31:43.506Z,19.80
2023-03-03T09:34:22.417Z,20.03
2023-03-03T09:36:51.779Z,20.18
2023-03-03T09:39:21.619Z,20.23
2023-03-03T09:42:42.884Z,19.75
2023-03-03T09:45:41.874Z,19.88
2023-03-03T09:48:34.069Z,19.49
2023-03-03T09:51:27.195Z,20.57
2023-03-03T09:54:06.330Z,21.23
2023-03-03T09:56:38.778Z,21.91
2023-03-03T09:59:24.068Z,21.30
2023-03-03T10:02:06.586Z,21.81
2023-03-03T10:04:50.755Z,21.57
2023-03-03T10:07:40.346Z,21.09
2023-03-03T10:10:22.533Z,20.72
2023-03-03T10:13:03.477Z,20.46
2023-03-03T10:15:44.218Z,20.30
2023-03-03T10:18:24.382Z,19.94
2023-03-03T10:21:05.772Z,19.53
2023-03-03T10:23:57.634Z,19.57
2023-03-03T10:26:54.652Z,19.18
2023-03-03T10:29:37.075Z,19.47
2023-03-03T10:32:27.380Z,19.13
2023-03-03T10:35:15.585Z,19.46
2023-03-03T10:37:54.140Z,19.29
2023-03-03T10:40:30.165Z,19.73
2023-03-03T10:43:29.906Z,19.33
2023-03-03T10:46:21.779Z,19.51
2023-03-03T10:49:03.223Z,19.51
2023-03-03T10:51:40.799Z,19.96
2023-03-03T10:54:31.235Z,19.68
2023-03-03T10:57:08.511Z,20.04
2023-03-03T10:59:52.690Z,19.85
2023-03-03T11:02:26.573Z,19.91
2023-03-03T11:05:23.902Z,20.21
2023-03-03T11:07:56.718Z,20.13
2023-03-03T11:10:51.195Z,20.19
2023-03-03T11:13:27.343Z,19.90
2023-03-03T11:16:06.492Z,20.26
2023-03-03T11:18:52.714Z,20.40
2023-03-03T11:21:26.008Z,19.94
2023-03-03T11:24:03.322Z,20.01
2023-03-03T11:26:46.498Z,20.46
2023-03-03T11:29:29.413Z,20.00
2023-03-03T11:32:01.762Z,19.91
2023-03-03T11:34:47.203Z,19.75
2023-03-03T11:37:23.031Z,20.08
2023-03-03T11:39:54.634Z,19.49
2023-03-03T11:42:27.744Z,19.58
2023-03-03T11:45:01.154Z,19.58
2023-03-03T11:47:34.873Z,19.86
2023-03-03T11:50:05.530Z,19.73
2023-03-03T11:52:44.667Z,19.62
2023-03-03T11:55:16.435Z,19.81
2023-03-03T11:57:51.847Z,20.05
2023-03-03T12:00:32.098Z,19.94
2023-03-03T12:03:15.570Z,19.98
2023-03-03T12:05:51.264Z,19.97
2023-03-03T12:08:31.678Z,20.01
2023-03-03T12:11:08.988Z,20.12
2023-03-03T12:13:50.702Z,20.32
2023-03-03T12:16:29.597Z,20.52
2023-03-03T12:19:11.467Z,20.43
2023-03-03T12:21:55.471Z,20.47
2023-03-03T12:24:34.152Z,19.97
2023-03-03T12:27:12.595Z,20.43
2023-03-03T12:29:51.476Z,20.33
2023-03-03T12:32:35.211Z,20.52
2023-03-03T12:35:10.949Z,20.19
2023-03-03T12:37:50.831Z,20.32
2023-03-03T12:40:21.889Z,19.93
2023-03-03T12:43:05.836Z,20.33
2023-03-03T12:45:45.192Z,20.70
2023-03-03T12:48:18.522Z,20.67
2023-03-03T12:51:00.468Z,20.87
2023-03-03T12:53:54.804Z,20.78
2023-03-03T12:56:31.659Z,20.65
2023-03-03T12:59:05.837Z,20.75
2023-03-03T13:01:53.696Z,20.99
2023-03-03T13:04:34.312Z,20.57
2023-03-03T13:07:09.562Z,20.80
2023-03-03T13:09:53.339Z,20.25
2023-03-03T13:12:33.747Z,20.12
2023-03-03T13:15:09.682Z,19.84
2023-03-03T13:17:43.923Z,19.75
2023-03-03T13:20:26.248Z,19.47
2023-03-03T13:23:00.854Z,19.54
2023-03-03T13:25:42.142Z,19.32
2023-03-03T13:28:19.507Z,19.29
2023-03-03T13:30:51.136Z,19.19
2023-03-03T13:33:26.775Z,18.63
2023-03-03T13:36:01.096Z,18.82
2023-03-03T13:38:32.279Z,18.38
2023-03-03T13:41:08.034Z,18.36
2023-03-03T13:43:44.800Z,17.84
2023-03-03T13:46:19.563Z,17.87
2023-03-03T13:49:21.256Z,18.04
2023-03-03T13:51:57.592Z,17.56
2023-03-03T13:54:55.974Z,17.40
2023-03-03T13:57:55.509Z,17.72
2023-03-03T14:00:36.816Z,17.52
2023-03-03T14:03:19.015Z,17.50
2023-03-03T14:05:50.899Z,17.25
2023-03-03T14:08:36.645Z,17.26
2023-03-03T14:11:12.322Z,17.15
2023-03-03T14:13:50.709Z,16.92
2023-03-03T14:16:23.905Z,17.24
2023-03-03T14:18:58.140Z,16.96
2023-03-03T14:21:32.450Z,17.11
2023-03-03T14:24:08.605Z,16.70
2023-03-03T14:26:49.548Z,16.84
2023-03-03T14:29:32.613Z,17.01
2023-03-03T14:32:02.695Z,16.69
2023-03-03T14:34:39.394Z,16.74
2023-03-03T14:37:23.861Z,16.70
2023-03-03T14:40:21.281Z,16.67
2023-03-03T14:42:55.640Z,16.28
2023-03-03T14:45:32.397Z,16.58
2023-03-03T14:48:06.915Z,16.26
2023-03-03T14:50:37.809Z,16.10
2023-03-03T14:53:21.472Z,16.52
2023-03-03T14:55:52.903Z,16.25
2023-03-03T14:58:30.805Z,16.04
2023-03-03T15:01:10.299Z,16.49
2023-03-03T15:03:40.941Z,16.29
2023-03-03T15:06:13.941Z,16.58
2023-03-03T15:08:43.537Z,16.27
2023-03-03T15:11:22.019Z,16.18
2023-03-03T15:13:49.986Z,16.29
2023-03-03T15:16:19.868Z,16.52
2023-03-03T15:19:20.243Z,16.70
2023-03-03T15:22:00.818Z,17.20
2023-03-03T15:24:39.032Z,17.44
2023-03-03T15:27:14.510Z,17.65
2023-03-03T15:29:53.194Z,17.52
2023-03-03T15:32:31.059Z,19.08
2023-03-03T15:35:11.378Z,18.83
2023-03-03T15:37:47.929Z,18.85
2023-03-03T15:40:26.940Z,18.55
2023-03-03T15:43:05.679Z,18.36
2023-03-03T15:45:37.984Z,18.27
2023-03-03T15:48:17.832Z,17.78
2023-03-03T15:50:53.583Z,17.54
2023-03-03T15:53:43.852Z,17.47
2023-03-03T15:56:25.829Z,17.82
2023-03-03T15:59:31.469Z,17.51
2023-03-03T16:02:11.838Z,17.42
2023-03-03T16:04:45.967Z,17.03
2023-03-03T16:07:26.976Z,16.84
2023-03-03T16:10:04.702Z,17.10
2023-03-03T16:12:41.327Z,16.75
2023-03-03T16:15:22.782Z,16.57
2023-03-03T16:18:00.322Z,16.93
2023-03-03T16:20:34.623Z,16.50
2023-03-03T16:23:30.143Z,16.39
2023-03-03T16:26:09.409Z,16.48
2023-03-03T16:28:51.583Z,16.32
2023-03-03T16:31:26.682Z,16.17
2023-03-03T16:34:04.555Z,16.29
2023-03-03T16:36:41.543Z,16.30
2023-03-03T16:39:16.274Z,16.38
2023-03-03T16:41:52.380Z,16.03
2023-03-03T16:44:34.210Z,16.04
2023-03-03T16:47:17.507Z,15.92
2023-03-03T16:49:53.812Z,15.89
2023-03-03T16:52:30.826Z,15.86
2023-03-03T16:55:04.212Z,16.10
2023-03-03T16:57:42.982Z,16.20
2023-03-03T17:00:18.973Z,15.96
2023-03-03T17:03:05.118Z,16.10
2023-03-03T17:05:44.246Z,15.81
2023-03-03T17:08:34.311Z,16.04
2023-03-03T17:11:13.362Z,16.01
2023-03-03T17:14:07.098Z,16.20
2023-03-03T17:16:52.674Z,16.05
2023-03-03T17:19:37.535Z,16.01
2023-03-03T17:22:15.679Z,16.42
2023-03-03T17:24:53.516Z,16.01
2023-03-03T17:27:29.143Z,16.05
2023-03-03T17:30:04.390Z,16.09
2023-03-03T17:33:07.477Z,16.39
2023-03-03T17:35:53.222Z,16.26
2023-03-03T17:38:34.796Z,16.06
2023-03-03T17:41:07.786Z,16.21
2023-03-03T17:43:45.394Z,16.45
2023-03-03T17:46:18.696Z,16.26
2023-03-03T17:49:09.358Z,16.05
2023-03-03T17:52:01.173Z,15.97
2023-03-03T17:55:04.549Z,15.54
2023-03-03T17:57:52.106Z,15.22
2023-03-03T18:00:32.693Z,14.87
2023-03-03T18:03:31.784Z,15.07
2023-03-03T18:06:19.404Z,14.39
2023-03-03T18:09:15.433Z,14.62
2023-03-03T18:12:00.159Z,14.11
2023-03-03T18:14:49.456Z,13.87
2023-03-03T18:17:34.729Z,14.13
2023-03-03T18:20:31.425Z,14.01
2023-03-03T18:23:19.596Z,13.81
2023-03-03T18:25:57.941Z,13.95
2023-03-03T18:28:44.792Z,13.76
2023-03-03T18:31:24.371Z,13.65
2023-03-03T18:34:09.812Z,13.31
2023-03-03T18:36:52.022Z,13.63
2023-03-03T18:39:37.699Z,13.74
2023-03-03T18:42:13.074Z,13.36
2023-03-03T18:44:41.132Z,13.14
2023-03-03T18:47:09.599Z,13.42
2023-03-03T18:49:58.009Z,13.34
2023-03-03T18:52:29.434Z,13.19
2023-03-03T18:55:23.285Z,13.20
2023-03-03T18:58:28.645Z,12.89
2023-03-03T19:01:00.917Z,13.03
2023-03-03T19:03:33.722Z,12.61
2023-03-03T19:06:02.726Z,13.01
2023-03-03T19:08:51.298Z,12.83
2023-03-03T19:11:37.770Z,12.47
2023-03-03T19:14:34.270Z,12.72
2023-03-03T19:17:34.859Z,12.81
2023-03-03T19:20:11.903Z,12.60
2023-03-03T19:22:46.363Z,12.37
2023-03-03T19:25:23.056Z,12.26
2023-03-03T19:28:01.147Z,12.56
2023-03-03T19:30:46.687Z,12.01
2023-03-03T19:33:38.366Z,12.52
2023-03-03T19:36:18.319Z,12.52
2023-03-03T19:39:08.126Z,11.96
2023-03-03T19:41:50.558Z,11.94
2023-03-03T19:44:30.582Z,12.17
2023-03-03T19:47:04.611Z,12.10
2023-03-03T19:49:55.068Z,12.29
2023-03-03T19:52:31.439Z,12.15
2023-03-03T19:55:14.748Z,12.08
2023-03-03T19:57:53.486Z,12.20
2023-03-03T20:00:28.253Z,12.43
2023-03-03T20:03:20.489Z,12.38
2023-03-03T20:05:53.300Z,12.19
2023-03-03T20:08:29.360Z,12.51
2023-03-03T20:11:03.559Z,12.08
2023-03-03T20:13:45.212Z,12.49
2023-03-03T20:16:24.360Z,12.33
2023-03-03T20:19:10.029Z,12.48
2023-03-03T20:21:42.688Z,12.13
2023-03-03T20:24:42.667Z,12.65
2023-03-03T20:27:16.424Z,12.23
2023-03-03T20:30:11.299Z,12.36
2023-03-03T20:32:53.867Z,12.54
2023-03-03T20:35:32.822Z,12.59
2023-03-03T20:38:13.382Z,12.21
2023-03-03T20:40:51.824Z,12.43
2023-03-03T20:43:36.171Z,12.45
2023-03-03T20:46:12.076Z,12.52
2023-03-03T20:49:09.904Z,12.38
2023-03-03T20:51:44.549Z,12.35
2023-03-03T20:54:24.490Z,12.53
2023-03-03T20:57:04.485Z,12.49
2023-03-03T20:59:38.482Z,12.11
2023-03-03T21:02:17.743Z,12.17
2023-03-03T21:04:45.846Z,12.42
2023-03-03T21:07:26.296Z,12.04
2023-03-03T21:10:12.509Z,12.01
2023-03-03T21:12:42.138Z,12.05
2023-03-03T21:15:25.118Z,11.93
2023-03-03T21:17:54.880Z,12.42
2023-03-03T21:20:29.913Z,12.31
2023-03-03T21:22:59.066Z,12.39
2023-03-03T21:25:48.256Z,12.40
2023-03-03T21:28:20.522Z,12.06
2023-03-03T21:31:09.089Z,12.12
2023-03-03T21:33:48.091Z,12.60
2023-03-03T21:36:17.977Z,12.45
2023-03-03T21:38:47.208Z,12.85
2023-03-03T21:41:16.519Z,12.76
2023-03-03T21:43:47.725Z,13.32
2023-03-03T21:46:19.348Z,13.22
2023-03-03T21:48:47.455Z,13.28
2023-03-03T21:51:15.585Z,13.03
2023-03-03T21:53:44.233Z,13.60
2023-03-03T21:56:13.868Z,13.02
2023-03-03T21:58:42.288Z,13.54
2023-03-03T22:01:11.674Z,13.32
2023-03-03T22:03:40.624Z,13.03
2023-03-03T22:06:08.814Z,13.02
2023-03-03T22:08:36.787Z,13.36
2023-03-03T22:11:05.662Z,13.20
2023-03-03T22:13:33.674Z,13.44
2023-03-03T22:16:01.643Z,13.20
2023-03-03T22:18:30.956Z,13.34
2023-03-03T22:20:58.906Z,13.02
2023-03-03T22:23:26.932Z,13.10
2023-03-03T22:25:54.859Z,13.11
2023-03-03T22:28:23.266Z,12.88
2023-03-03T22:30:51.383Z,13.14
2023-03-03T22:33:19.359Z,13.34
2023-03-03T22:35:49.074Z,12.96
2023-03-03T22:38:17.835Z,13.09
2023-03-03T22:40:45.825Z,13.20
2023-03-03T22:43:14.598Z,13.17
2023-03-03T22:45:44.637Z,12.96
2023-03-03T22:48:13.276Z,13.41
2023-03-03T22:50:42.853Z,13.00
2023-03-03T22:53:12.562Z,13.13
2023-03-03T22:55:40.491Z,13.09
2023-03-03T22:58:09.610Z,13.22
2023-03-03T23:00:39.175Z,13.06
2023-03-03T23:03:07.475Z,12.92
2023-03-03T23:05:35.950Z,13.15
2023-03-03T23:08:05.419Z,13.34
2023-03-03T23:10:34.980Z,12.82
2023-03-03T23:13:03.210Z,12.75
2023-03-03T23:15:31.453Z,13.09
2023-03-03T23:17:59.350Z,12.90
2023-03-03T23:20:30.431Z,12.64
2023-03-03T23:22:58.718Z,12.96
2023-03-03T23:25:26.992Z,12.78
2023-03-03T23:27:57.226Z,12.79
2023-03-03T23:30:25.891Z,13.01
2023-03-03T23:32:54.760Z,12.69
2023-03-03T23:35:23.088Z,12.97
2023-03-03T23:37:51.116Z,12.56
2023-03-03T23:40:19.724Z,12.56
2023-03-03T23:42:47.680Z,12.79
2023-03-03T23:45:17.272Z,12.94
2023-03-03T23:47:45.298Z,12.51
2023-03-03T23:50:13.666Z,12.46
2023-03-03T23:52:42.018Z,12.82
2023-03-03T23:55:10.801Z,12.35
2023-03-03T23:57:38.824Z,12.40
